sensor_id;sensor_type;location;lat;lon;timestamp;temperature;humidity
55026;DHT22;40925;45.666;18.994;2023-08-07T05:33:29;460.80;2380.80
55026;DHT22;40925;45.666;18.994;2023-08-07T05:35:55;436.10;2355.20
55026;DHT22;40925;45.666;18.994;2023-08-07T05:38:21;436.10;2355.20
55026;DHT22;40925;45.666;18.994;2023-08-07T05:40:47;436.10;2355.20
55026;DHT22;40925;45.666;18.994;2023-08-07T05:43:13;436.10;2355.20
55026;DHT22;40925;45.666;18.994;2023-08-07T05:45:42;460.90;2380.80
55026;DHT22;40925;45.666;18.994;2023-08-07T05:51:45;461.10;2380.80
55026;DHT22;40925;45.666;18.994;2023-08-07T05:54:11;461.30;2380.80
55026;DHT22;40925;45.666;18.994;2023-08-07T05:59:04;486.50;2380.80
55026;DHT22;40925;45.666;18.994;2023-08-07T06:01:30;486.50;2176.00
55026;DHT22;40925;45.666;18.994;2023-08-07T06:03:57;486.50;2380.80
55026;DHT22;40925;45.666;18.994;2023-08-07T06:06:25;486.60;2355.20
55026;DHT22;40925;45.666;18.994;2023-08-07T06:08:54;486.90;2380.80
55026;DHT22;40925;45.666;18.994;2023-08-07T06:11:20;486.70;2380.80
55026;DHT22;40925;45.666;18.994;2023-08-07T06:13:46;486.80;2380.80
55026;DHT22;40925;45.666;18.994;2023-08-07T06:16:12;486.70;2380.80
55026;DHT22;40925;45.666;18.994;2023-08-07T06:18:38;486.70;2380.80
55026;DHT22;40925;45.666;18.994;2023-08-07T06:21:04;486.70;2380.80
55026;DHT22;40925;45.666;18.994;2023-08-07T06:23:33;486.70;2380.80
55026;DHT22;40925;45.666;18.994;2023-08-07T06:26:00;486.70;2380.80
55026;DHT22;40925;45.666;18.994;2023-08-07T06:28:31;486.70;2380.80
55026;DHT22;40925;45.666;18.994;2023-08-07T06:31:05;486.80;2380.80
55026;DHT22;40925;45.666;18.994;2023-08-07T06:37:21;487.20;2099.20
55026;DHT22;40925;45.666;18.994;2023-08-07T06:56:54;512.80;2380.80
55026;DHT22;40925;45.666;18.994;2023-08-07T06:59:22;512.20;2380.80
55026;DHT22;40925;45.666;18.994;2023-08-07T07:01:49;512.40;2380.80
55026;DHT22;40925;45.666;18.994;2023-08-07T07:28:49;538.50;2406.40
55026;DHT22;40925;45.666;18.994;2023-08-07T07:31:16;538.40;2406.40
55026;DHT22;40925;45.666;18.994;2023-08-07T07:37:05;538.10;2406.40
55026;DHT22;40925;45.666;18.994;2023-08-07T07:39:31;538.30;2406.40
55026;DHT22;40925;45.666;18.994;2023-08-07T07:41:57;538.40;2406.40
55026;DHT22;40925;45.666;18.994;2023-08-07T07:44:23;538.40;2406.40
55026;DHT22;40925;45.666;18.994;2023-08-07T07:46:49;538.40;2406.40
55026;DHT22;40925;45.666;18.994;2023-08-07T07:49:15;538.40;2406.40
55026;DHT22;40925;45.666;18.994;2023-08-07T07:51:41;538.50;2406.40
55026;DHT22;40925;45.666;18.994;2023-08-07T07:54:10;538.50;2406.40
55026;DHT22;40925;45.666;18.994;2023-08-07T07:56:36;538.50;2406.40
55026;DHT22;40925;45.666;18.994;2023-08-07T07:59:03;538.20;2406.40
55026;DHT22;40925;45.666;18.994;2023-08-07T08:01:32;538.40;2406.40
55026;DHT22;40925;45.666;18.994;2023-08-07T08:07:19;538.40;2406.40
55026;DHT22;40925;45.666;18.994;2023-08-07T08:09:45;538.20;2406.40
55026;DHT22;40925;45.666;18.994;2023-08-07T08:24:24;563.30;2432.00
55026;DHT22;40925;45.666;18.994;2023-08-07T09:41:53;614.40;2432.00
55026;DHT22;40925;45.666;18.994;2023-08-07T09:44:21;614.40;2432.00
55026;DHT22;40925;45.666;18.994;2023-08-07T10:10:01;615.10;2432.00
55026;DHT22;40925;45.666;18.994;2023-08-07T10:17:25;640.40;2432.00
55026;DHT22;40925;45.666;18.994;2023-08-07T10:56:03;691.40;1792.00
55026;DHT22;40925;45.666;18.994;2023-08-07T10:58:31;666.30;1740.80
55026;DHT22;40925;45.666;18.994;2023-08-07T11:01:19;691.50;1843.20
55026;DHT22;40925;45.666;18.994;2023-08-07T11:04:05;691.60;1817.60
55026;DHT22;40925;45.666;18.994;2023-08-07T11:06:34;691.50;1689.60
55026;DHT22;40925;45.666;18.994;2023-08-07T11:09:03;691.90;1715.20
55026;DHT22;40925;45.666;18.994;2023-08-07T11:11:42;691.60;1689.60
55026;DHT22;40925;45.666;18.994;2023-08-07T11:14:11;691.20;1715.20
55026;DHT22;40925;45.666;18.994;2023-08-07T11:16:38;666.40;1715.20
55026;DHT22;40925;45.666;18.994;2023-08-07T11:19:05;691.20;1715.20
55026;DHT22;40925;45.666;18.994;2023-08-07T11:21:34;666.20;1689.60
55026;DHT22;40925;45.666;18.994;2023-08-07T11:24:02;666.20;1920.00
55026;DHT22;40925;45.666;18.994;2023-08-07T11:26:28;666.10;1740.80
55026;DHT22;40925;45.666;18.994;2023-08-07T11:28:55;666.20;1689.60
55026;DHT22;40925;45.666;18.994;2023-08-07T11:31:24;666.20;1638.40
55026;DHT22;40925;45.666;18.994;2023-08-07T11:34:00;665.90;1689.60
55026;DHT22;40925;45.666;18.994;2023-08-07T11:36:28;640.70;1766.40
55026;DHT22;40925;45.666;18.994;2023-08-07T11:38:58;665.90;1740.80
55026;DHT22;40925;45.666;18.994;2023-08-07T11:41:24;666.40;1638.40
55026;DHT22;40925;45.666;18.994;2023-08-07T11:43:50;666.50;1638.40
55026;DHT22;40925;45.666;18.994;2023-08-07T11:48:44;691.80;1638.40
55026;DHT22;40925;45.666;18.994;2023-08-07T11:51:10;691.80;1587.20
55026;DHT22;40925;45.666;18.994;2023-08-07T11:53:39;691.80;1561.60
55026;DHT22;40925;45.666;18.994;2023-08-07T11:56:07;691.70;1536.00
55026;DHT22;40925;45.666;18.994;2023-08-07T12:01:10;717.00;1510.40
55026;DHT22;40925;45.666;18.994;2023-08-07T12:03:39;692.10;1510.40
55026;DHT22;40925;45.666;18.994;2023-08-07T12:06:06;691.80;1536.00
55026;DHT22;40925;45.666;18.994;2023-08-07T12:08:39;692.10;1408.00
55026;DHT22;40925;45.666;18.994;2023-08-07T12:16:03;717.70;1484.80
55026;DHT22;40925;45.666;18.994;2023-08-07T12:18:31;717.60;1433.60
55026;DHT22;40925;45.666;18.994;2023-08-07T12:20:59;717.70;1382.40
55026;DHT22;40925;45.666;18.994;2023-08-07T12:48:01;742.80;1382.40
55026;DHT22;40925;45.666;18.994;2023-08-07T12:50:28;742.50;1305.60
55026;DHT22;40925;45.666;18.994;2023-08-07T12:52:55;717.60;1305.60
55026;DHT22;40925;45.666;18.994;2023-08-07T13:02:47;665.70;1587.20
55026;DHT22;40925;45.666;18.994;2023-08-07T13:08:17;640.10;1638.40
55026;DHT22;40925;45.666;18.994;2023-08-07T13:10:43;615.20;1664.00
55026;DHT22;40925;45.666;18.994;2023-08-07T13:15:36;640.50;1664.00
55026;DHT22;40925;45.666;18.994;2023-08-07T13:18:02;640.80;1689.60
55026;DHT22;40925;45.666;18.994;2023-08-07T13:24:19;666.00;1689.60
55026;DHT22;40925;45.666;18.994;2023-08-07T13:26:46;665.80;1612.80
55026;DHT22;40925;45.666;18.994;2023-08-07T13:29:12;640.90;1612.80
55026;DHT22;40925;45.666;18.994;2023-08-07T13:31:38;640.90;1561.60
55026;DHT22;40925;45.666;18.994;2023-08-07T13:34:04;665.60;1612.80
55026;DHT22;40925;45.666;18.994;2023-08-07T13:36:37;665.70;1561.60
55026;DHT22;40925;45.666;18.994;2023-08-07T13:39:04;666.00;1561.60
55026;DHT22;40925;45.666;18.994;2023-08-07T13:41:31;666.00;1536.00
55026;DHT22;40925;45.666;18.994;2023-08-07T13:43:58;666.00;1536.00
55026;DHT22;40925;45.666;18.994;2023-08-07T13:46:26;666.10;1510.40
55026;DHT22;40925;45.666;18.994;2023-08-07T13:48:54;665.90;1484.80
55026;DHT22;40925;45.666;18.994;2023-08-07T13:51:20;665.90;1484.80
55026;DHT22;40925;45.666;18.994;2023-08-07T13:53:47;666.00;1459.20
55026;DHT22;40925;45.666;18.994;2023-08-07T13:56:17;666.20;1433.60
55026;DHT22;40925;45.666;18.994;2023-08-07T13:58:43;666.20;1459.20
55026;DHT22;40925;45.666;18.994;2023-08-07T14:01:09;666.20;1459.20
55026;DHT22;40925;45.666;18.994;2023-08-07T14:03:38;665.80;1433.60
55026;DHT22;40925;45.666;18.994;2023-08-07T14:06:06;665.70;1433.60
55026;DHT22;40925;45.666;18.994;2023-08-07T14:08:33;665.60;1484.80
55026;DHT22;40925;45.666;18.994;2023-08-07T14:11:00;665.60;1484.80
55026;DHT22;40925;45.666;18.994;2023-08-07T14:13:26;640.90;1484.80
55026;DHT22;40925;45.666;18.994;2023-08-07T14:15:52;640.90;1484.80
55026;DHT22;40925;45.666;18.994;2023-08-07T14:18:18;640.90;1484.80
55026;DHT22;40925;45.666;18.994;2023-08-07T14:24:06;665.60;1484.80
55026;DHT22;40925;45.666;18.994;2023-08-07T14:26:33;640.90;1484.80
55026;DHT22;40925;45.666;18.994;2023-08-07T14:28:59;665.80;1510.40
55026;DHT22;40925;45.666;18.994;2023-08-07T14:31:25;666.20;1484.80
55026;DHT22;40925;45.666;18.994;2023-08-07T14:33:52;666.40;1459.20
55026;DHT22;40925;45.666;18.994;2023-08-07T14:36:22;666.20;1459.20
55026;DHT22;40925;45.666;18.994;2023-08-07T14:38:51;666.40;1459.20
55026;DHT22;40925;45.666;18.994;2023-08-07T14:41:18;666.20;1433.60
55026;DHT22;40925;45.666;18.994;2023-08-07T14:43:44;666.20;1459.20
55026;DHT22;40925;45.666;18.994;2023-08-07T14:46:15;666.00;1433.60
55026;DHT22;40925;45.666;18.994;2023-08-07T14:48:41;665.90;1459.20
55026;DHT22;40925;45.666;18.994;2023-08-07T14:51:07;666.10;1459.20
55026;DHT22;40925;45.666;18.994;2023-08-07T14:53:33;665.90;1459.20
55026;DHT22;40925;45.666;18.994;2023-08-07T14:56:01;666.10;1459.20
55026;DHT22;40925;45.666;18.994;2023-08-07T14:58:27;666.10;1433.60
55026;DHT22;40925;45.666;18.994;2023-08-07T15:00:55;666.20;1433.60
55026;DHT22;40925;45.666;18.994;2023-08-07T15:03:22;666.40;1484.80
55026;DHT22;40925;45.666;18.994;2023-08-07T15:09:25;666.50;1433.60
55026;DHT22;40925;45.666;18.994;2023-08-07T15:11:51;666.20;1408.00
55026;DHT22;40925;45.666;18.994;2023-08-07T15:14:17;666.10;1433.60
55026;DHT22;40925;45.666;18.994;2023-08-07T15:16:43;666.00;1433.60
55026;DHT22;40925;45.666;18.994;2023-08-07T15:21:41;640.90;1561.60
55026;DHT22;40925;45.666;18.994;2023-08-07T15:24:07;640.70;1459.20
55026;DHT22;40925;45.666;18.994;2023-08-07T15:26:34;640.60;1484.80
55026;DHT22;40925;45.666;18.994;2023-08-07T15:29:01;640.50;1459.20
55026;DHT22;40925;45.666;18.994;2023-08-07T15:31:27;640.40;1484.80
55026;DHT22;40925;45.666;18.994;2023-08-07T15:33:53;640.60;1510.40
55026;DHT22;40925;45.666;18.994;2023-08-07T15:36:21;640.60;1510.40
55026;DHT22;40925;45.666;18.994;2023-08-07T15:38:47;640.80;1510.40
55026;DHT22;40925;45.666;18.994;2023-08-07T15:41:13;640.60;1510.40
55026;DHT22;40925;45.666;18.994;2023-08-07T15:43:40;640.80;1510.40
55026;DHT22;40925;45.666;18.994;2023-08-07T15:46:06;640.80;1510.40
55026;DHT22;40925;45.666;18.994;2023-08-07T15:48:32;640.90;1510.40
55026;DHT22;40925;45.666;18.994;2023-08-07T15:54:20;666.10;1587.20
55026;DHT22;40925;45.666;18.994;2023-08-07T15:56:46;665.80;1536.00
55026;DHT22;40925;45.666;18.994;2023-08-07T15:59:13;665.90;1561.60
55026;DHT22;40925;45.666;18.994;2023-08-07T16:01:42;666.10;1510.40
55026;DHT22;40925;45.666;18.994;2023-08-07T16:04:09;666.20;1433.60
55026;DHT22;40925;45.666;18.994;2023-08-07T16:06:36;666.10;1484.80
55026;DHT22;40925;45.666;18.994;2023-08-07T16:09:02;665.60;1484.80
55026;DHT22;40925;45.666;18.994;2023-08-07T16:11:28;640.90;1510.40
55026;DHT22;40925;45.666;18.994;2023-08-07T16:13:54;640.60;1510.40
55026;DHT22;40925;45.666;18.994;2023-08-07T16:16:20;640.50;1510.40
55026;DHT22;40925;45.666;18.994;2023-08-07T16:18:46;640.60;1510.40
55026;DHT22;40925;45.666;18.994;2023-08-07T16:24:37;640.60;1510.40
55026;DHT22;40925;45.666;18.994;2023-08-07T16:27:04;640.70;1510.40
55026;DHT22;40925;45.666;18.994;2023-08-07T16:29:34;640.50;1536.00
55026;DHT22;40925;45.666;18.994;2023-08-07T16:32:00;640.50;1510.40
55026;DHT22;40925;45.666;18.994;2023-08-07T16:34:30;640.40;1484.80
55026;DHT22;40925;45.666;18.994;2023-08-07T16:36:57;640.50;1510.40
55026;DHT22;40925;45.666;18.994;2023-08-07T16:39:23;640.20;1484.80
55026;DHT22;40925;45.666;18.994;2023-08-07T16:41:52;640.00;1484.80
55026;DHT22;40925;45.666;18.994;2023-08-07T16:44:23;615.20;1536.00
55026;DHT22;40925;45.666;18.994;2023-08-07T16:46:50;615.00;1536.00
55026;DHT22;40925;45.666;18.994;2023-08-07T16:49:18;614.90;1561.60
55026;DHT22;40925;45.666;18.994;2023-08-07T16:51:45;614.80;1561.60
55026;DHT22;40925;45.666;18.994;2023-08-07T17:26:47;589.60;1612.80
55026;DHT22;40925;45.666;18.994;2023-08-07T17:29:14;589.40;1664.00
55026;DHT22;40925;45.666;18.994;2023-08-07T17:54:53;563.50;1817.60
55026;DHT22;40925;45.666;18.994;2023-08-07T17:57:20;563.30;2150.40
55026;DHT22;40925;45.666;18.994;2023-08-07T17:59:47;563.20;1894.40
55026;DHT22;40925;45.666;18.994;2023-08-07T18:02:13;538.40;1868.80
55026;DHT22;40925;45.666;18.994;2023-08-07T18:04:41;538.10;1868.80
55026;DHT22;40925;45.666;18.994;2023-08-07T18:42:22;512.70;2073.60
55026;DHT22;40925;45.666;18.994;2023-08-07T19:02:32;512.20;2201.60
55026;DHT22;40925;45.666;18.994;2023-08-07T19:04:58;512.20;2201.60
55026;DHT22;40925;45.666;18.994;2023-08-07T19:10:46;487.20;2201.60
55026;DHT22;40925;45.666;18.994;2023-08-07T19:13:13;487.10;2227.20
55026;DHT22;40925;45.666;18.994;2023-08-07T19:15:39;487.10;2252.80
55026;DHT22;40925;45.666;18.994;2023-08-07T19:18:05;487.10;2278.40
55026;DHT22;40925;45.666;18.994;2023-08-07T19:20:31;487.00;2278.40
55026;DHT22;40925;45.666;18.994;2023-08-07T19:22:57;487.00;2278.40
55026;DHT22;40925;45.666;18.994;2023-08-07T19:25:24;486.90;2278.40
55026;DHT22;40925;45.666;18.994;2023-08-07T19:27:51;486.90;2329.60
55026;DHT22;40925;45.666;18.994;2023-08-07T19:30:18;486.80;2355.20
55026;DHT22;40925;45.666;18.994;2023-08-07T19:32:44;486.90;2380.80
55026;DHT22;40925;45.666;18.994;2023-08-07T19:35:11;486.80;2380.80
55026;DHT22;40925;45.666;18.994;2023-08-07T19:37:37;486.70;2380.80
55026;DHT22;40925;45.666;18.994;2023-08-07T19:40:03;486.70;2380.80
55026;DHT22;40925;45.666;18.994;2023-08-07T19:42:35;486.60;2380.80
55026;DHT22;40925;45.666;18.994;2023-08-07T19:45:02;486.60;2380.80
55026;DHT22;40925;45.666;18.994;2023-08-07T19:47:29;486.50;2380.80
55026;DHT22;40925;45.666;18.994;2023-08-07T19:49:56;486.50;2380.80
55026;DHT22;40925;45.666;18.994;2023-08-07T19:55:44;486.50;2380.80
55026;DHT22;40925;45.666;18.994;2023-08-07T19:58:11;486.50;2380.80
55026;DHT22;40925;45.666;18.994;2023-08-07T20:00:37;486.40;2380.80
55026;DHT22;40925;45.666;18.994;2023-08-07T20:03:03;461.60;2380.80
55026;DHT22;40925;45.666;18.994;2023-08-07T20:05:30;461.70;2380.80
55026;DHT22;40925;45.666;18.994;2023-08-07T20:07:56;461.60;2380.80
55026;DHT22;40925;45.666;18.994;2023-08-07T20:10:22;461.70;2380.80
55026;DHT22;40925;45.666;18.994;2023-08-07T20:12:52;461.70;2380.80
55026;DHT22;40925;45.666;18.994;2023-08-07T20:15:18;461.70;2380.80
55026;DHT22;40925;45.666;18.994;2023-08-07T20:17:47;461.70;2380.80
55026;DHT22;40925;45.666;18.994;2023-08-07T20:20:15;461.70;2380.80
55026;DHT22;40925;45.666;18.994;2023-08-07T20:26:03;461.70;2380.80
55026;DHT22;40925;45.666;18.994;2023-08-07T20:28:29;461.60;2380.80
55026;DHT22;40925;45.666;18.994;2023-08-07T20:30:56;461.60;2380.80
55026;DHT22;40925;45.666;18.994;2023-08-07T20:33:23;461.60;2380.80
55026;DHT22;40925;45.666;18.994;2023-08-07T20:35:49;461.50;2380.80
55026;DHT22;40925;45.666;18.994;2023-08-07T20:38:15;461.50;2380.80
55026;DHT22;40925;45.666;18.994;2023-08-07T20:40:42;461.50;2380.80
55026;DHT22;40925;45.666;18.994;2023-08-07T20:43:09;461.50;2380.80
55026;DHT22;40925;45.666;18.994;2023-08-07T20:45:35;461.40;2380.80
55026;DHT22;40925;45.666;18.994;2023-08-07T20:48:02;461.40;2380.80
55026;DHT22;40925;45.666;18.994;2023-08-07T20:50:29;461.40;2380.80
55026;DHT22;40925;45.666;18.994;2023-08-07T20:56:49;461.40;2380.80
55026;DHT22;40925;45.666;18.994;2023-08-07T20:59:15;461.40;2380.80
55026;DHT22;40925;45.666;18.994;2023-08-07T21:01:42;461.40;2380.80
55026;DHT22;40925;45.666;18.994;2023-08-07T21:04:10;461.40;2380.80
55026;DHT22;40925;45.666;18.994;2023-08-07T21:06:36;461.60;2380.80
55026;DHT22;40925;45.666;18.994;2023-08-07T21:09:02;461.70;2380.80
55026;DHT22;40925;45.666;18.994;2023-08-07T21:11:29;461.70;2380.80
55026;DHT22;40925;45.666;18.994;2023-08-07T21:13:56;486.60;2380.80
55026;DHT22;40925;45.666;18.994;2023-08-07T21:16:23;461.60;2380.80
55026;DHT22;40925;45.666;18.994;2023-08-07T21:18:49;461.70;2380.80
55026;DHT22;40925;45.666;18.994;2023-08-07T21:21:15;461.70;2380.80
55026;DHT22;40925;45.666;18.994;2023-08-07T21:23:43;461.70;2380.80
55026;DHT22;40925;45.666;18.994;2023-08-07T21:26:11;461.70;2380.80
55026;DHT22;40925;45.666;18.994;2023-08-07T21:28:41;461.70;2380.80
55026;DHT22;40925;45.666;18.994;2023-08-07T21:31:07;461.60;2380.80
55026;DHT22;40925;45.666;18.994;2023-08-07T21:33:34;461.70;2380.80
55026;DHT22;40925;45.666;18.994;2023-08-07T21:36:01;461.70;2380.80
55026;DHT22;40925;45.666;18.994;2023-08-07T21:38:30;461.70;2380.80
55026;DHT22;40925;45.666;18.994;2023-08-07T21:40:57;486.40;2380.80
55026;DHT22;40925;45.666;18.994;2023-08-07T21:43:25;461.70;2380.80
55026;DHT22;40925;45.666;18.994;2023-08-07T21:45:51;461.70;2380.80
55026;DHT22;40925;45.666;18.994;2023-08-07T21:48:18;461.70;2380.80
55026;DHT22;40925;45.666;18.994;2023-08-07T21:50:45;486.40;2380.80
55026;DHT22;40925;45.666;18.994;2023-08-07T21:56:34;486.40;2380.80
55026;DHT22;40925;45.666;18.994;2023-08-07T21:59:01;486.40;2380.80
55026;DHT22;40925;45.666;18.994;2023-08-07T22:01:28;486.40;2380.80
55026;DHT22;40925;45.666;18.994;2023-08-07T22:03:54;461.70;2380.80
55026;DHT22;40925;45.666;18.994;2023-08-07T22:09:02;461.40;2380.80
55026;DHT22;40925;45.666;18.994;2023-08-07T22:11:35;461.30;2380.80
55026;DHT22;40925;45.666;18.994;2023-08-07T22:14:01;461.20;2380.80
55026;DHT22;40925;45.666;18.994;2023-08-07T22:16:27;461.20;2380.80
55026;DHT22;40925;45.666;18.994;2023-08-07T22:18:54;461.20;2380.80
55026;DHT22;40925;45.666;18.994;2023-08-07T22:21:21;461.10;2380.80
55026;DHT22;40925;45.666;18.994;2023-08-07T22:24:05;461.10;2380.80
55026;DHT22;40925;45.666;18.994;2023-08-07T22:26:31;461.10;2380.80
55026;DHT22;40925;45.666;18.994;2023-08-07T22:28:57;461.10;2380.80
55026;DHT22;40925;45.666;18.994;2023-08-07T22:48:31;461.10;2380.80
55026;DHT22;40925;45.666;18.994;2023-08-07T22:50:57;461.00;2380.80
55026;DHT22;40925;45.666;18.994;2023-08-07T22:53:25;461.00;2380.80
55026;DHT22;40925;45.666;18.994;2023-08-07T22:55:51;460.90;2380.80
55026;DHT22;40925;45.666;18.994;2023-08-07T22:58:18;460.90;2380.80
55026;DHT22;40925;45.666;18.994;2023-08-07T23:00:43;460.90;2380.80
55026;DHT22;40925;45.666;18.994;2023-08-07T23:03:09;461.00;2380.80
55026;DHT22;40925;45.666;18.994;2023-08-07T23:05:35;461.00;2380.80
55026;DHT22;40925;45.666;18.994;2023-08-07T23:08:01;460.90;2380.80
55026;DHT22;40925;45.666;18.994;2023-08-07T23:10:27;461.10;2380.80
55026;DHT22;40925;45.666;18.994;2023-08-07T23:12:53;460.90;2380.80
55026;DHT22;40925;45.666;18.994;2023-08-07T23:15:20;460.80;2380.80
55026;DHT22;40925;45.666;18.994;2023-08-07T23:17:46;461.00;2380.80
55026;DHT22;40925;45.666;18.994;2023-08-07T23:20:14;461.00;2380.80
55026;DHT22;40925;45.666;18.994;2023-08-07T23:22:42;460.90;2380.80
55026;DHT22;40925;45.666;18.994;2023-08-07T23:25:08;460.90;2380.80
55026;DHT22;40925;45.666;18.994;2023-08-07T23:27:34;460.90;2380.80
55026;DHT22;40925;45.666;18.994;2023-08-07T23:30:07;460.80;2380.80
55026;DHT22;40925;45.666;18.994;2023-08-07T23:32:39;460.90;2380.80
55026;DHT22;40925;45.666;18.994;2023-08-07T23:35:05;460.80;2380.80
55026;DHT22;40925;45.666;18.994;2023-08-07T23:37:32;460.90;2380.80
55026;DHT22;40925;45.666;18.994;2023-08-07T23:39:58;460.80;2380.80
55026;DHT22;40925;45.666;18.994;2023-08-07T23:42:25;460.80;2380.80
55026;DHT22;40925;45.666;18.994;2023-08-07T23:44:50;436.10;2355.20
55026;DHT22;40925;45.666;18.994;2023-08-07T23:47:16;460.80;2380.80
55026;DHT22;40925;45.666;18.994;2023-08-07T23:49:42;461.00;2380.80
55026;DHT22;40925;45.666;18.994;2023-08-07T23:52:15;460.80;2380.80
55026;DHT22;40925;45.666;18.994;2023-08-07T23:54:41;460.80;2380.80
55026;DHT22;40925;45.666;18.994;2023-08-07T23:57:10;460.80;2380.80
55026;DHT22;40925;45.666;18.994;2023-08-07T23:59:35;436.10;2355.20
